createdAt,value
2016-11-14T00:00:49.554Z,43.35
2016-11-14T00:01:58.263Z,43.35
2016-11-14T00:03:07.248Z,43.35
2016-11-14T00:04:16.244Z,43.35
2016-11-14T00:05:25.742Z,43.35
2016-11-14T00:06:35.109Z,43.26
2016-11-14T00:07:43.819Z,43.07
2016-11-14T00:08:53.120Z,42.77
2016-11-14T00:10:02.577Z,42.97
2016-11-14T00:11:11.874Z,43.16
2016-11-14T00:12:21.044Z,43.16
2016-11-14T00:13:30.356Z,43.16
2016-11-14T00:14:39.344Z,42.87
2016-11-14T00:15:48.341Z,42.77
2016-11-14T00:16:57.643Z,42.77
2016-11-14T00:18:06.494Z,42.97
2016-11-14T00:19:15.578Z,43.16
2016-11-14T00:20:24.258Z,42.97
2016-11-14T00:21:33.262Z,42.68
2016-11-14T00:22:42.573Z,42.97
2016-11-14T00:23:51.715Z,42.77
2016-11-14T00:25:00.913Z,42.68
2016-11-14T00:26:10.214Z,42.68
2016-11-14T00:27:19.205Z,42.87
2016-11-14T00:28:27.907Z,42.77
2016-11-14T00:29:37.560Z,42.77
2016-11-14T00:30:46.247Z,42.68
2016-11-14T00:31:54.930Z,42.58
2016-11-14T00:33:03.918Z,42.97
2016-11-14T00:34:12.925Z,42.87
2016-11-14T00:35:21.766Z,42.97
2016-11-14T00:36:30.752Z,42.97
2016-11-14T00:37:39.735Z,42.97
2016-11-14T00:38:48.413Z,42.97
2016-11-14T00:39:57.721Z,42.58
2016-11-14T00:41:07.330Z,42.68
2016-11-14T00:42:16.634Z,42.68
2016-11-14T00:43:25.772Z,42.68
2016-11-14T00:44:34.550Z,42.68
2016-11-14T00:45:43.875Z,42.68
2016-11-14T00:46:52.864Z,42.68
2016-11-14T00:48:01.988Z,42.68
2016-11-14T00:49:10.985Z,42.77
2016-11-14T00:50:19.682Z,42.77
2016-11-14T00:51:28.365Z,42.77
2016-11-14T00:52:37.671Z,42.77
2016-11-14T00:53:46.458Z,42.58
2016-11-14T00:54:55.156Z,42.58
2016-11-14T00:56:04.469Z,42.68
2016-11-14T00:57:13.497Z,42.68
2016-11-14T00:58:22.506Z,42.58
2016-11-14T00:59:32.436Z,42.58
2016-11-14T01:00:41.548Z,42.49
2016-11-14T01:01:50.567Z,42.39
2016-11-14T01:02:59.566Z,42.39
2016-11-14T01:04:08.916Z,42.58
2016-11-14T01:05:17.916Z,42.58
2016-11-14T01:06:26.925Z,42.49
2016-11-14T01:07:35.828Z,42.49
2016-11-14T01:08:44.818Z,42.3
2016-11-14T01:09:53.559Z,42.2
2016-11-14T01:11:03.178Z,42.39
2016-11-14T01:12:12.178Z,42.1
2016-11-14T01:13:21.213Z,42.39
2016-11-14T01:14:29.987Z,42
2016-11-14T01:15:39.282Z,42.39
2016-11-14T01:16:48.281Z,42
2016-11-14T01:17:57.271Z,42.2
2016-11-14T01:19:06.705Z,42.39
2016-11-14T01:20:16.307Z,42.49
2016-11-14T01:21:25.651Z,42.39
2016-11-14T01:22:35.260Z,42.39
2016-11-14T01:23:44.286Z,42.3
2016-11-14T01:24:53.581Z,42.1
2016-11-14T01:26:02.578Z,42.2
2016-11-14T01:27:11.593Z,42.2
2016-11-14T01:28:20.602Z,42.3
2016-11-14T01:29:29.295Z,42.2
2016-11-14T01:30:38.922Z,42.1
2016-11-14T01:31:48.225Z,42.3
2016-11-14T01:32:57.240Z,42.3
2016-11-14T01:34:06.561Z,42.1
2016-11-14T01:35:16.172Z,42.1
2016-11-14T01:36:24.856Z,42
2016-11-14T01:37:34.156Z,41.82
2016-11-14T01:38:43.457Z,42
2016-11-14T01:39:52.148Z,42
2016-11-14T01:41:01.761Z,41.82
2016-11-14T01:42:11.051Z,42.1
2016-11-14T01:43:20.658Z,42.2
2016-11-14T01:44:29.649Z,42.2
2016-11-14T01:45:38.739Z,42.1
2016-11-14T01:46:48.730Z,42.1
2016-11-14T01:47:57.416Z,42.2
2016-11-14T01:49:06.401Z,42.2
2016-11-14T01:50:15.699Z,41.91
2016-11-14T01:51:24.382Z,41.91
2016-11-14T01:52:33.063Z,41.99
2016-11-14T01:53:42.358Z,42
2016-11-14T01:54:51.357Z,41.91
2016-11-14T01:56:00.670Z,42
2016-11-14T01:57:09.376Z,42
2016-11-14T01:58:19.009Z,41.99
2016-11-14T01:59:27.998Z,41.79
2016-11-14T02:00:36.992Z,41.72
2016-11-14T02:01:45.701Z,41.82
2016-11-14T02:02:54.693Z,41.91
2016-11-14T02:04:03.692Z,41.7
2016-11-14T02:05:12.690Z,41.72
2016-11-14T02:06:21.380Z,41.72
2016-11-14T02:07:30.059Z,41.6
2016-11-14T02:08:39.052Z,41.89
2016-11-14T02:09:48.035Z,41.91
2016-11-14T02:10:57.040Z,41.89
2016-11-14T02:12:06.347Z,42.1
2016-11-14T02:13:15.335Z,42.08
2016-11-14T02:14:24.327Z,42.1
2016-11-14T02:15:33.020Z,41.99
2016-11-14T02:16:42.009Z,41.99
2016-11-14T02:17:51.014Z,41.6
2016-11-14T02:19:00.154Z,41.82
2016-11-14T02:20:09.142Z,41.7
2016-11-14T02:21:18.754Z,42.08
2016-11-14T02:22:28.669Z,41.79
2016-11-14T02:23:37.357Z,41.89
2016-11-14T02:24:47.074Z,41.6
2016-11-14T02:25:56.057Z,41.6
2016-11-14T02:27:05.045Z,41.79
2016-11-14T02:28:14.029Z,41.6
2016-11-14T02:29:23.355Z,41.6
2016-11-14T02:30:32.346Z,41.6
2016-11-14T02:31:41.334Z,41.79
2016-11-14T02:32:50.639Z,41.79
2016-11-14T02:33:59.339Z,41.5
2016-11-14T02:35:08.030Z,41.5
2016-11-14T02:36:17.315Z,41.5
2016-11-14T02:37:26.341Z,41.5
2016-11-14T02:38:35.643Z,41.89
2016-11-14T02:39:44.674Z,41.79
2016-11-14T02:40:53.364Z,41.5
2016-11-14T02:42:02.208Z,41.7
2016-11-14T02:43:10.887Z,41.41
2016-11-14T02:44:19.941Z,41.41
2016-11-14T02:45:29.235Z,41.41
2016-11-14T02:46:38.214Z,41.5
2016-11-14T02:47:47.211Z,41.6
2016-11-14T02:48:56.197Z,41.7
2016-11-14T02:50:05.500Z,41.6
2016-11-14T02:51:14.803Z,41.5
2016-11-14T02:52:23.852Z,41.6
2016-11-14T02:53:32.589Z,41.7
2016-11-14T02:54:41.882Z,41.7
2016-11-14T02:55:51.177Z,41.7
2016-11-14T02:56:59.866Z,41.7
2016-11-14T02:58:09.474Z,41.5
2016-11-14T02:59:18.158Z,41.22
2016-11-14T03:00:27.144Z,41.31
2016-11-14T03:01:36.467Z,41.22
2016-11-14T03:02:45.775Z,41.12
2016-11-14T03:03:54.801Z,41.31
2016-11-14T03:05:04.094Z,41.31
2016-11-14T03:06:12.780Z,41.31
2016-11-14T03:07:21.771Z,41.22
2016-11-14T03:08:30.758Z,41.12
2016-11-14T03:09:39.745Z,41.12
2016-11-14T03:10:48.749Z,41.31
2016-11-14T03:11:57.737Z,41.02
2016-11-14T03:13:06.429Z,41.31
2016-11-14T03:14:15.430Z,41.12
2016-11-14T03:15:24.442Z,41.22
2016-11-14T03:16:33.431Z,41.02
2016-11-14T03:17:42.122Z,41.02
2016-11-14T03:18:51.113Z,41.12
2016-11-14T03:19:59.809Z,41.12
2016-11-14T03:21:08.497Z,41.02
2016-11-14T03:22:17.193Z,41.02
2016-11-14T03:23:26.499Z,40.93
2016-11-14T03:24:35.800Z,41.02
2016-11-14T03:25:44.491Z,40.93
2016-11-14T03:26:53.792Z,41.02
2016-11-14T03:28:02.791Z,40.83
2016-11-14T03:29:11.818Z,40.83
2016-11-14T03:30:20.912Z,40.83
2016-11-14T03:31:29.643Z,40.83
2016-11-14T03:32:38.686Z,40.93
2016-11-14T03:33:48.591Z,40.83
2016-11-14T03:34:57.285Z,40.64
2016-11-14T03:36:06.619Z,40.73
2016-11-14T03:37:15.315Z,40.73
2016-11-14T03:38:24.306Z,40.73
2016-11-14T03:39:33.157Z,40.83
2016-11-14T03:40:42.455Z,40.83
2016-11-14T03:41:51.444Z,40.93
2016-11-14T03:43:00.433Z,40.83
2016-11-14T03:44:09.435Z,40.73
2016-11-14T03:45:18.430Z,40.83
2016-11-14T03:46:27.462Z,40.83
2016-11-14T03:47:36.768Z,40.64
2016-11-14T03:48:46.065Z,40.73
2016-11-14T03:49:55.052Z,40.73
2016-11-14T03:51:04.044Z,40.64
2016-11-14T03:52:12.724Z,40.35
2016-11-14T03:53:21.807Z,40.64
2016-11-14T03:54:30.797Z,40.83
2016-11-14T03:55:40.106Z,40.35
2016-11-14T03:56:49.433Z,40.64
2016-11-14T03:57:58.138Z,40.64
2016-11-14T03:59:07.138Z,40.55
2016-11-14T04:00:16.138Z,40.64
2016-11-14T04:01:25.131Z,40.55
2016-11-14T04:02:35.051Z,40.55
2016-11-14T04:03:43.744Z,40.64
2016-11-14T04:04:52.439Z,40.55
2016-11-14T04:06:01.433Z,40.45
2016-11-14T04:07:11.040Z,40.55
2016-11-14T04:08:20.209Z,40.45
2016-11-14T04:09:29.529Z,40.45
2016-11-14T04:10:38.837Z,40.55
2016-11-14T04:11:47.523Z,40.45
2016-11-14T04:12:56.210Z,40.45
2016-11-14T04:14:05.205Z,40.45
2016-11-14T04:15:14.201Z,40.45
2016-11-14T04:16:23.493Z,40.55
2016-11-14T04:17:32.827Z,40.55
2016-11-14T04:18:41.831Z,40.45
2016-11-14T04:19:50.517Z,40.55
2016-11-14T04:20:59.534Z,40.55
2016-11-14T04:22:08.218Z,40.45
2016-11-14T04:23:17.530Z,40.35
2016-11-14T04:24:26.237Z,40.45
2016-11-14T04:25:35.522Z,40.45
2016-11-14T04:26:44.510Z,40.43
2016-11-14T04:27:53.565Z,40.35
2016-11-14T04:29:02.256Z,40.35
2016-11-14T04:30:10.942Z,40.35
2016-11-14T04:31:19.926Z,40.35
2016-11-14T04:32:28.921Z,40.45
2016-11-14T04:33:38.248Z,40.35
2016-11-14T04:34:47.450Z,40.64
2016-11-14T04:35:56.442Z,40.55
2016-11-14T04:37:05.895Z,40.55
2016-11-14T04:38:15.506Z,40.55
2016-11-14T04:39:24.808Z,40.55
2016-11-14T04:40:33.501Z,40.55
2016-11-14T04:41:42.486Z,40.16
2016-11-14T04:42:51.498Z,40.16
2016-11-14T04:44:00.481Z,40.25
2016-11-14T04:45:10.092Z,40.16
2016-11-14T04:46:19.393Z,40.05
2016-11-14T04:47:28.389Z,40.06
2016-11-14T04:48:37.230Z,40.14
2016-11-14T04:49:45.911Z,40.06
2016-11-14T04:50:54.893Z,40.25
2016-11-14T04:52:03.893Z,40.16
2016-11-14T04:53:12.604Z,40.23
2016-11-14T04:54:21.439Z,40.16
2016-11-14T04:55:30.437Z,40.23
2016-11-14T04:56:39.430Z,40.25
2016-11-14T04:57:48.431Z,40.25
2016-11-14T04:58:57.426Z,40.16
2016-11-14T05:00:06.792Z,40.14
2016-11-14T05:01:16.128Z,40.16
2016-11-14T05:02:24.844Z,40.33
2016-11-14T05:03:33.838Z,40.16
2016-11-14T05:04:43.147Z,40.14
2016-11-14T05:05:52.169Z,40.16
2016-11-14T05:07:01.457Z,40.23
2016-11-14T05:08:10.144Z,40.23
2016-11-14T05:09:19.144Z,40.43
2016-11-14T05:10:28.150Z,40.33
2016-11-14T05:11:37.304Z,40.23
2016-11-14T05:12:46.615Z,40.33
2016-11-14T05:13:55.643Z,39.95
2016-11-14T05:15:04.984Z,40.16
2016-11-14T05:16:13.724Z,39.85
2016-11-14T05:17:22.800Z,40.05
2016-11-14T05:18:32.090Z,39.95
2016-11-14T05:19:41.107Z,39.76
2016-11-14T05:20:50.756Z,39.66
2016-11-14T05:21:59.796Z,39.66
2016-11-14T05:23:09.409Z,39.95
2016-11-14T05:24:18.133Z,39.76
2016-11-14T05:25:27.126Z,39.76
2016-11-14T05:26:36.125Z,39.66
2016-11-14T05:27:45.425Z,39.56
2016-11-14T05:28:54.777Z,39.56
2016-11-14T05:30:04.104Z,39.85
2016-11-14T05:31:13.409Z,39.66
2016-11-14T05:32:22.758Z,39.56
2016-11-14T05:33:31.758Z,39.56
2016-11-14T05:34:40.592Z,39.56
2016-11-14T05:35:49.594Z,39.56
2016-11-14T05:36:58.317Z,39.56
2016-11-14T05:38:07.311Z,39.39
2016-11-14T05:39:16.326Z,39.2
2016-11-14T05:40:25.681Z,39.18
2016-11-14T05:41:34.690Z,38.81
2016-11-14T05:42:43.688Z,38.81
2016-11-14T05:43:52.715Z,39.11
2016-11-14T05:45:02.035Z,38.91
2016-11-14T05:46:11.375Z,38.62
2016-11-14T05:47:20.993Z,38.24
2016-11-14T05:48:29.989Z,38.14
2016-11-14T05:49:39.303Z,38.26
2016-11-14T05:50:48.610Z,38.26
2016-11-14T05:51:57.345Z,37.97
2016-11-14T05:53:06.658Z,37.97
2016-11-14T05:54:15.956Z,37.59
2016-11-14T05:55:25.269Z,37.59
2016-11-14T05:56:34.566Z,37.87
2016-11-14T05:57:43.716Z,37.59
2016-11-14T05:58:52.407Z,37.6
2016-11-14T06:00:01.710Z,37.68
2016-11-14T06:01:10.702Z,37.6
2016-11-14T06:02:19.702Z,37.41
2016-11-14T06:03:28.545Z,37.41
2016-11-14T06:04:37.846Z,37.12
2016-11-14T06:05:46.843Z,37.22
2016-11-14T06:06:55.851Z,36.93
2016-11-14T06:08:04.848Z,36.93
2016-11-14T06:09:14.007Z,37.12
2016-11-14T06:10:23.321Z,37.04
2016-11-14T06:11:32.313Z,36.95
2016-11-14T06:12:41.093Z,36.95
2016-11-14T06:13:50.124Z,36.95
2016-11-14T06:14:58.853Z,36.66
2016-11-14T06:16:07.590Z,36.66
2016-11-14T06:17:16.585Z,36.85
2016-11-14T06:18:25.581Z,36.66
2016-11-14T06:19:34.799Z,36.56
2016-11-14T06:20:43.797Z,36.66
2016-11-14T06:21:52.486Z,36.58
2016-11-14T06:23:01.981Z,36.58
2016-11-14T06:24:10.794Z,36.39
2016-11-14T06:25:19.486Z,36.47
2016-11-14T06:26:28.491Z,36.37
2016-11-14T06:27:37.231Z,36.39
2016-11-14T06:28:46.230Z,36.19
2016-11-14T06:29:55.231Z,36
2016-11-14T06:31:04.413Z,35.91
2016-11-14T06:32:14.303Z,36
2016-11-14T06:33:23.760Z,35.81
2016-11-14T06:34:33.079Z,36
2016-11-14T06:35:42.091Z,35.91
2016-11-14T06:36:51.092Z,35.71
2016-11-14T06:38:00.255Z,35.64
2016-11-14T06:39:09.261Z,35.64
2016-11-14T06:40:18.574Z,35.54
2016-11-14T06:41:28.170Z,35.44
2016-11-14T06:42:37.780Z,35.54
2016-11-14T06:43:47.289Z,35.44
2016-11-14T06:44:56.488Z,35.44
2016-11-14T06:46:05.651Z,35.16
2016-11-14T06:47:15.102Z,35.16
2016-11-14T06:48:24.496Z,35.17
2016-11-14T06:49:33.641Z,35.08
2016-11-14T06:50:42.850Z,34.88
2016-11-14T06:51:51.913Z,34.98
2016-11-14T06:53:01.226Z,35.27
2016-11-14T06:54:12.260Z,35.08
2016-11-14T06:55:22.977Z,35.17
2016-11-14T06:56:31.977Z,34.88
2016-11-14T06:57:40.657Z,35.17
2016-11-14T06:58:49.669Z,34.98
2016-11-14T06:59:58.681Z,34.98
2016-11-14T07:01:07.986Z,35.08
2016-11-14T07:02:16.976Z,34.98
2016-11-14T07:03:25.978Z,34.98
2016-11-14T07:04:34.988Z,34.98
2016-11-14T07:05:43.982Z,34.98
2016-11-14T07:06:53.898Z,34.98
2016-11-14T07:08:03.017Z,34.98
2016-11-14T07:09:12.343Z,34.98
2016-11-14T07:10:21.348Z,35.08
2016-11-14T07:11:30.061Z,34.88
2016-11-14T07:12:39.373Z,35.08
2016-11-14T07:13:48.753Z,35.08
2016-11-14T07:14:58.383Z,35.08
2016-11-14T07:16:07.709Z,35.17
2016-11-14T07:17:17.283Z,35.08
2016-11-14T07:18:26.296Z,35.17
2016-11-14T07:19:34.984Z,35.08
2016-11-14T07:20:43.988Z,35.08
2016-11-14T07:21:52.703Z,35.08
2016-11-14T07:23:01.697Z,35.27
2016-11-14T07:24:11.012Z,35.17
2016-11-14T07:25:20.068Z,35.17
2016-11-14T07:26:29.367Z,35.27
2016-11-14T07:27:38.384Z,35.36
2016-11-14T07:28:47.403Z,35.36
2016-11-14T07:29:56.708Z,35.56
2016-11-14T07:31:05.749Z,35.65
2016-11-14T07:32:14.813Z,35.94
2016-11-14T07:33:23.558Z,35.65
2016-11-14T07:34:32.876Z,35.73
2016-11-14T07:35:41.920Z,35.64
2016-11-14T07:36:50.937Z,36.02
2016-11-14T07:37:59.642Z,36.11
2016-11-14T07:39:09.245Z,36.11
2016-11-14T07:40:18.238Z,36.11
2016-11-14T07:41:27.081Z,36.21
2016-11-14T07:42:36.402Z,36.41
2016-11-14T07:43:45.395Z,36.41
2016-11-14T07:44:54.103Z,36.51
2016-11-14T07:46:02.803Z,36.51
2016-11-14T07:47:12.411Z,36.6
2016-11-14T07:48:22.087Z,36.6
2016-11-14T07:49:30.803Z,36.6
2016-11-14T07:50:40.114Z,36.58
2016-11-14T07:51:49.131Z,36.68
2016-11-14T07:52:58.241Z,36.58
2016-11-14T07:54:06.951Z,36.58
2016-11-14T07:55:15.951Z,36.87
2016-11-14T07:56:25.316Z,36.68
2016-11-14T07:57:34.024Z,36.68
2016-11-14T07:58:43.318Z,36.77
2016-11-14T07:59:52.327Z,36.77
2016-11-14T08:01:01.627Z,36.68
2016-11-14T08:02:10.629Z,36.87
2016-11-14T08:03:19.627Z,36.77
2016-11-14T08:04:28.621Z,36.87
2016-11-14T08:05:37.635Z,36.77
2016-11-14T08:06:46.955Z,36.97
2016-11-14T08:07:55.662Z,36.97
2016-11-14T08:09:05.287Z,36.87
2016-11-14T08:10:14.273Z,36.87
2016-11-14T08:11:23.271Z,36.97
2016-11-14T08:12:31.973Z,36.97
2016-11-14T08:13:41.594Z,36.87
2016-11-14T08:14:50.634Z,37.06
2016-11-14T08:15:59.321Z,36.97
2016-11-14T08:17:08.017Z,36.97
2016-11-14T08:18:17.047Z,36.97
2016-11-14T08:19:25.733Z,37.04
2016-11-14T08:20:34.732Z,36.87
2016-11-14T08:21:44.079Z,37.04
2016-11-14T08:22:53.727Z,36.95
2016-11-14T08:24:03.037Z,36.97
2016-11-14T08:25:11.764Z,36.95
2016-11-14T08:26:20.767Z,36.97
2016-11-14T08:27:29.843Z,36.97
2016-11-14T08:28:39.453Z,36.76
2016-11-14T08:29:48.518Z,36.95
2016-11-14T08:30:57.517Z,36.97
2016-11-14T08:32:06.514Z,36.97
2016-11-14T08:33:15.382Z,36.95
2016-11-14T08:34:24.714Z,36.95
2016-11-14T08:35:33.759Z,37.04
2016-11-14T08:36:43.371Z,36.95
2016-11-14T08:37:52.380Z,36.95
2016-11-14T08:39:01.736Z,37.14
2016-11-14T08:40:11.355Z,36.95
2016-11-14T08:41:20.039Z,37.14
2016-11-14T08:42:28.783Z,37.14
2016-11-14T08:43:37.807Z,37.14
2016-11-14T08:44:46.971Z,37.04
2016-11-14T08:45:55.668Z,37.14
2016-11-14T08:47:05.031Z,37.14
2016-11-14T08:48:14.399Z,37.04
2016-11-14T08:49:23.102Z,36.85
2016-11-14T08:50:32.094Z,37.04
2016-11-14T08:51:40.795Z,36.95
2016-11-14T08:52:50.102Z,37.04
2016-11-14T08:53:59.448Z,37.14
2016-11-14T08:55:08.152Z,37.04
2016-11-14T08:56:17.330Z,36.85
2016-11-14T08:57:26.662Z,37.14
2016-11-14T08:58:35.704Z,37.04
2016-11-14T08:59:44.698Z,36.95
2016-11-14T09:00:53.790Z,37.02
2016-11-14T09:02:03.711Z,36.95
2016-11-14T09:03:13.054Z,36.95
2016-11-14T09:04:22.075Z,36.95
2016-11-14T09:05:30.776Z,36.85
2016-11-14T09:06:40.077Z,36.95
2016-11-14T09:07:49.383Z,36.93
2016-11-14T09:08:58.409Z,36.95
2016-11-14T09:10:07.111Z,36.85
2016-11-14T09:11:15.964Z,36.95
2016-11-14T09:12:24.661Z,36.93
2016-11-14T09:13:33.361Z,36.83
2016-11-14T09:14:42.382Z,36.95
2016-11-14T09:15:51.378Z,36.95
2016-11-14T09:17:00.999Z,36.93
2016-11-14T09:18:09.722Z,36.74
2016-11-14T09:19:19.285Z,36.95
2016-11-14T09:20:28.163Z,37.04
2016-11-14T09:21:36.902Z,36.85
2016-11-14T09:22:46.205Z,36.85
2016-11-14T09:23:55.268Z,36.95
2016-11-14T09:25:04.430Z,36.54
2016-11-14T09:26:13.437Z,36.76
2016-11-14T09:27:23.086Z,36.66
2016-11-14T09:28:32.400Z,36.66
2016-11-14T09:29:41.484Z,36.66
2016-11-14T09:30:50.851Z,36.66
2016-11-14T09:31:59.555Z,36.45
2016-11-14T09:33:08.878Z,36.66
2016-11-14T09:34:17.629Z,36.66
2016-11-14T09:35:26.658Z,36.47
2016-11-14T09:36:35.666Z,36.66
2016-11-14T09:37:44.359Z,36.47
2016-11-14T09:38:53.666Z,36.93
2016-11-14T09:40:03.320Z,36.45
2016-11-14T09:41:12.937Z,36.76
2016-11-14T09:42:21.945Z,36.56
2016-11-14T09:43:30.958Z,36.66
2016-11-14T09:44:40.274Z,36.66
2016-11-14T09:45:49.578Z,36.66
2016-11-14T09:46:58.265Z,36.76
2016-11-14T09:48:07.312Z,36.66
2016-11-14T09:49:16.324Z,36.76
2016-11-14T09:50:25.644Z,36.56
2016-11-14T09:51:34.362Z,36.64
2016-11-14T09:52:43.706Z,36.56
2016-11-14T09:53:52.770Z,36.56
2016-11-14T09:55:02.091Z,36.66
2016-11-14T09:56:11.452Z,36.54
2016-11-14T09:57:20.769Z,36.56
2016-11-14T09:58:30.116Z,36.47
2016-11-14T09:59:38.877Z,36.35
2016-11-14T10:00:47.868Z,36.54
2016-11-14T10:01:56.556Z,36.37
2016-11-14T10:03:05.866Z,36.47
2016-11-14T10:04:14.893Z,36.37
2016-11-14T10:05:24.202Z,36.27
2016-11-14T10:06:33.205Z,36.47
2016-11-14T10:07:41.935Z,36.25
2016-11-14T10:08:51.539Z,36.18
2016-11-14T10:10:00.891Z,36.18
2016-11-14T10:11:10.476Z,36.37
2016-11-14T10:12:19.484Z,36.18
2016-11-14T10:13:28.196Z,36.27
2016-11-14T10:14:37.028Z,36.08
2016-11-14T10:15:46.079Z,36.37
2016-11-14T10:16:55.447Z,36.18
2016-11-14T10:18:04.169Z,36.08
2016-11-14T10:19:13.169Z,35.99
2016-11-14T10:20:21.855Z,35.87
2016-11-14T10:21:31.189Z,36.18
2016-11-14T10:22:40.210Z,36.35
2016-11-14T10:23:48.903Z,36.37
2016-11-14T10:24:58.279Z,36.37
2016-11-14T10:26:06.995Z,36.37
2016-11-14T10:27:15.696Z,36.37
2016-11-14T10:28:24.718Z,36.27
2016-11-14T10:29:34.041Z,36.16
2016-11-14T10:30:42.782Z,36.35
2016-11-14T10:31:52.390Z,36.27
2016-11-14T10:33:01.093Z,36.25
2016-11-14T10:34:09.984Z,36.27
2016-11-14T10:35:19.301Z,36.16
2016-11-14T10:36:28.595Z,36.08
2016-11-14T10:37:37.302Z,36.16
2016-11-14T10:38:46.646Z,36.25
2016-11-14T10:39:55.692Z,36.18
2016-11-14T10:41:04.989Z,36.08
2016-11-14T10:42:14.610Z,36.08
2016-11-14T10:43:23.322Z,36.07
2016-11-14T10:44:32.405Z,36.18
2016-11-14T10:45:42.018Z,36.08
2016-11-14T10:46:50.733Z,36.25
2016-11-14T10:47:59.740Z,36.08
2016-11-14T10:49:08.741Z,36.16
2016-11-14T10:50:17.743Z,36.27
2016-11-14T10:51:27.421Z,36.16
2016-11-14T10:52:36.119Z,35.99
2016-11-14T10:53:44.868Z,36.08
2016-11-14T10:54:53.611Z,36.16
2016-11-14T10:56:02.327Z,36.18
2016-11-14T10:57:11.942Z,35.99
2016-11-14T10:58:20.942Z,36.16
2016-11-14T10:59:30.249Z,36.07
2016-11-14T11:00:39.549Z,36.08
2016-11-14T11:01:48.558Z,36.07
2016-11-14T11:02:57.994Z,36.07
2016-11-14T11:04:07.293Z,36.08
2016-11-14T11:05:16.293Z,36.07
2016-11-14T11:06:25.316Z,36.08
2016-11-14T11:07:34.059Z,36.25
2016-11-14T11:08:43.359Z,36.25
2016-11-14T11:09:52.142Z,36.07
2016-11-14T11:11:01.179Z,36.16
2016-11-14T11:12:10.502Z,36.07
2016-11-14T11:13:19.595Z,36.16
2016-11-14T11:14:28.344Z,36.07
2016-11-14T11:15:37.053Z,36.07
2016-11-14T11:16:46.372Z,36.16
2016-11-14T11:17:55.423Z,35.97
2016-11-14T11:19:04.146Z,35.87
2016-11-14T11:20:13.272Z,36.07
2016-11-14T11:21:22.582Z,35.87
2016-11-14T11:22:31.594Z,35.87
2016-11-14T11:23:40.907Z,36.07
2016-11-14T11:24:49.911Z,35.77
2016-11-14T11:25:59.230Z,35.97
2016-11-14T11:27:08.270Z,35.97
2016-11-14T11:28:17.274Z,35.97
2016-11-14T11:29:26.891Z,35.97
2016-11-14T11:30:35.960Z,35.77
2016-11-14T11:31:45.025Z,35.68
2016-11-14T11:32:54.680Z,35.97
2016-11-14T11:34:03.695Z,35.97
2016-11-14T11:35:13.037Z,35.87
2016-11-14T11:36:22.354Z,35.58
2016-11-14T11:37:31.682Z,35.77
2016-11-14T11:38:40.989Z,35.97
2016-11-14T11:39:49.692Z,35.87
2016-11-14T11:40:58.695Z,35.87
2016-11-14T11:42:07.715Z,35.68
2016-11-14T11:43:17.031Z,35.68
2016-11-14T11:44:27.004Z,35.77
2016-11-14T11:45:35.815Z,35.77
2016-11-14T11:46:44.515Z,35.87
2016-11-14T11:47:53.923Z,35.68
2016-11-14T11:49:02.981Z,35.68
2016-11-14T11:50:11.716Z,35.68
2016-11-14T11:51:21.064Z,35.68
2016-11-14T11:52:30.394Z,35.68
2016-11-14T11:53:39.450Z,35.68
2016-11-14T11:54:48.950Z,35.68
2016-11-14T11:55:57.997Z,35.68
2016-11-14T11:57:07.615Z,35.68
2016-11-14T11:58:16.749Z,35.68
2016-11-14T11:59:25.837Z,35.68
2016-11-14T12:00:34.876Z,35.58
2016-11-14T12:01:44.492Z,35.58
2016-11-14T12:02:53.530Z,35.68
2016-11-14T12:04:02.231Z,35.49
2016-11-14T12:05:11.238Z,35.39
2016-11-14T12:06:20.691Z,35.68
2016-11-14T12:07:29.396Z,35.49
2016-11-14T12:08:38.723Z,35.68
2016-11-14T12:09:47.445Z,35.58
2016-11-14T12:10:56.449Z,35.58
2016-11-14T12:12:06.404Z,35.49
2016-11-14T12:13:15.715Z,35.77
2016-11-14T12:14:25.014Z,35.49
2016-11-14T12:15:34.360Z,35.58
2016-11-14T12:16:43.769Z,35.58
2016-11-14T12:17:53.122Z,35.58
2016-11-14T12:19:01.900Z,35.49
2016-11-14T12:20:11.028Z,35.49
2016-11-14T12:21:20.507Z,35.39
2016-11-14T12:22:29.534Z,35.49
2016-11-14T12:23:39.059Z,35.39
2016-11-14T12:24:48.382Z,35.49
2016-11-14T12:25:57.399Z,35.49
2016-11-14T12:27:07.146Z,35.49
2016-11-14T12:28:15.887Z,35.2
2016-11-14T12:29:25.101Z,35.39
2016-11-14T12:30:34.137Z,35.3
2016-11-14T12:31:42.879Z,35.3
2016-11-14T12:32:51.978Z,35.39
2016-11-14T12:34:01.341Z,35.49
2016-11-14T12:35:11.016Z,35.39
2016-11-14T12:36:19.741Z,35.39
2016-11-14T12:37:28.487Z,35.3
2016-11-14T12:38:37.588Z,35.49
2016-11-14T12:39:47.278Z,35.3
2016-11-14T12:40:56.634Z,35.3
2016-11-14T12:42:05.968Z,35.3
2016-11-14T12:43:15.001Z,35.39
2016-11-14T12:44:23.739Z,35.39
2016-11-14T12:45:32.746Z,35.39
2016-11-14T12:46:42.057Z,35.3
2016-11-14T12:47:51.401Z,35.3
2016-11-14T12:49:00.465Z,35.2
2016-11-14T12:50:09.466Z,35.3
2016-11-14T12:51:18.538Z,35.3
2016-11-14T12:52:27.575Z,35.3
2016-11-14T12:53:36.626Z,35.3
2016-11-14T12:54:45.638Z,35.49
2016-11-14T12:55:54.387Z,35.39
2016-11-14T12:57:03.393Z,35.49
2016-11-14T12:58:12.579Z,35.39
2016-11-14T12:59:21.605Z,35.2
2016-11-14T13:00:30.610Z,35.2
2016-11-14T13:01:39.303Z,35.39
2016-11-14T13:02:48.376Z,35.2
2016-11-14T13:03:57.552Z,35.2
2016-11-14T13:05:06.580Z,35.2
2016-11-14T13:06:15.605Z,35.1
2016-11-14T13:07:24.658Z,35.1
2016-11-14T13:08:33.436Z,35.1
2016-11-14T13:09:42.478Z,35.2
2016-11-14T13:10:51.217Z,35.3
2016-11-14T13:12:00.259Z,35.2
2016-11-14T13:13:41.364Z,35.2
2016-11-14T13:14:50.382Z,35.2
2016-11-14T13:15:59.413Z,35.2
2016-11-14T13:17:08.427Z,35.1
2016-11-14T13:18:17.330Z,35
2016-11-14T13:19:26.381Z,35.1
2016-11-14T13:20:35.132Z,35
2016-11-14T13:21:44.221Z,35.1
2016-11-14T13:22:53.235Z,35.1
2016-11-14T13:24:02.578Z,35.3
2016-11-14T13:25:11.584Z,35
2016-11-14T13:26:20.923Z,35.1
2016-11-14T13:27:29.612Z,35.1
2016-11-14T13:28:38.609Z,35.1
2016-11-14T13:29:47.628Z,35.1
2016-11-14T13:30:56.963Z,35.2
2016-11-14T13:32:05.969Z,35.1
2016-11-14T13:33:14.972Z,35.1
2016-11-14T13:34:23.678Z,35.1
2016-11-14T13:35:32.706Z,35.2
2016-11-14T13:36:41.455Z,35.2
2016-11-14T13:37:50.887Z,35.2
2016-11-14T13:38:59.968Z,35.1
2016-11-14T13:40:09.279Z,34.91
2016-11-14T13:41:18.285Z,35
2016-11-14T13:42:27.592Z,35
2016-11-14T13:43:36.301Z,35.2
2016-11-14T13:44:45.624Z,34.91
2016-11-14T13:45:54.345Z,34.91
2016-11-14T13:47:03.848Z,35
2016-11-14T13:48:12.993Z,35
2016-11-14T13:49:22.617Z,35
2016-11-14T13:50:31.639Z,34.91
2016-11-14T13:51:40.328Z,35
2016-11-14T13:52:49.365Z,35
2016-11-14T13:53:58.385Z,35
2016-11-14T13:55:07.394Z,34.91
2016-11-14T13:56:16.106Z,35.1
2016-11-14T13:57:25.439Z,35
2016-11-14T13:58:35.158Z,34.91
2016-11-14T13:59:44.169Z,35.1
2016-11-14T14:00:52.893Z,35.1
2016-11-14T14:02:01.602Z,35.1
2016-11-14T14:03:11.244Z,35
2016-11-14T14:04:20.307Z,35.1
2016-11-14T14:05:29.001Z,35.1
2016-11-14T14:06:38.328Z,35.1
2016-11-14T14:07:47.637Z,35.1
2016-11-14T14:08:56.979Z,35.1
2016-11-14T14:10:05.989Z,34.91
2016-11-14T14:11:15.001Z,35.1
2016-11-14T14:12:24.321Z,35
2016-11-14T14:13:33.321Z,35.1
2016-11-14T14:14:42.023Z,35.1
2016-11-14T14:15:50.844Z,35
2016-11-14T14:16:59.857Z,35.1
2016-11-14T14:18:08.874Z,35.1
2016-11-14T14:19:18.198Z,35
2016-11-14T14:20:27.817Z,35.1
2016-11-14T14:21:37.433Z,35.1
2016-11-14T14:22:46.140Z,35.1
2016-11-14T14:23:54.841Z,35
2016-11-14T14:25:03.535Z,35
2016-11-14T14:26:12.835Z,35
2016-11-14T14:27:21.531Z,35.1
2016-11-14T14:28:30.845Z,35.1
2016-11-14T14:29:39.875Z,35.1
2016-11-14T14:30:49.191Z,35.1
2016-11-14T14:31:58.498Z,35
2016-11-14T14:33:07.187Z,35
2016-11-14T14:34:16.362Z,35.2
2016-11-14T14:35:25.046Z,35
2016-11-14T14:36:33.765Z,35
2016-11-14T14:37:43.062Z,35
2016-11-14T14:38:51.752Z,35.2
2016-11-14T14:40:01.053Z,35
2016-11-14T14:41:09.739Z,35
2016-11-14T14:42:19.071Z,35.2
2016-11-14T14:43:28.121Z,35.1
2016-11-14T14:44:37.119Z,35.1
2016-11-14T14:45:46.115Z,35.1
2016-11-14T14:46:55.116Z,35.2
2016-11-14T14:48:04.129Z,35
2016-11-14T14:49:13.131Z,35.1
2016-11-14T14:50:22.440Z,35.2
2016-11-14T14:51:31.783Z,35.2
2016-11-14T14:52:40.475Z,35
2016-11-14T14:53:50.092Z,35.2
2016-11-14T14:54:59.101Z,35
2016-11-14T14:56:08.732Z,35
2016-11-14T14:57:17.730Z,35.1
2016-11-14T14:58:26.716Z,35
2016-11-14T14:59:35.706Z,35.1
2016-11-14T15:00:44.701Z,35.1